createdAt,value
2023-03-05T00:01:07.710Z,92.80
2023-03-05T00:16:15.477Z,92.90
2023-03-05T00:31:22.447Z,93.30
2023-03-05T00:46:27.504Z,93.80
2023-03-05T01:01:32.477Z,94.60
2023-03-05T01:16:37.041Z,94.10
2023-03-05T01:31:41.570Z,95.20
2023-03-05T01:46:46.248Z,95.10
2023-03-05T02:01:55.521Z,95.90
2023-03-05T02:17:00.008Z,96.00
2023-03-05T02:32:05.203Z,96.20
2023-03-05T02:47:09.967Z,96.40
2023-03-05T03:02:15.303Z,97.20
2023-03-05T03:17:20.314Z,98.80
2023-03-05T03:32:25.070Z,97.40
2023-03-05T03:47:29.993Z,97.60
2023-03-05T04:02:34.636Z,97.50
2023-03-05T04:17:39.413Z,98.20
2023-03-05T04:32:44.381Z,98.30
2023-03-05T04:47:49.164Z,98.50
2023-03-05T05:02:54.486Z,99.00
2023-03-05T05:17:59.681Z,98.80
2023-03-05T05:33:04.396Z,97.90
2023-03-05T05:48:09.284Z,98.40
2023-03-05T06:03:13.942Z,98.10
2023-03-05T06:18:19.219Z,98.30
2023-03-05T06:33:25.301Z,97.80
2023-03-05T06:48:29.936Z,97.80
2023-03-05T07:03:35.201Z,97.70
2023-03-05T07:18:39.876Z,97.90
2023-03-05T07:33:44.448Z,97.60
2023-03-05T07:48:49.028Z,99.30
2023-03-05T08:03:53.682Z,99.60
2023-03-05T08:18:59.394Z,99.50
2023-03-05T08:34:04.781Z,99.70
2023-03-05T08:49:09.259Z,98.70
2023-03-05T09:04:13.751Z,99.10
2023-03-05T09:19:18.221Z,97.80
2023-03-05T09:34:22.725Z,98.50
2023-03-05T09:49:36.852Z,97.90
2023-03-05T10:04:46.059Z,98.00
2023-03-05T10:20:08.360Z,97.30
2023-03-05T10:35:39.315Z,97.40
2023-03-05T10:50:49.405Z,97.70
2023-03-05T11:06:01.270Z,96.40
2023-03-05T11:21:10.991Z,96.00
2023-03-05T11:36:24.181Z,94.50
2023-03-05T11:51:37.465Z,94.60
2023-03-05T12:06:46.161Z,95.50
2023-03-05T12:21:53.360Z,94.70
2023-03-05T12:36:57.861Z,94.50
2023-03-05T12:52:05.633Z,94.40
2023-03-05T13:07:17.778Z,94.00
2023-03-05T13:22:24.594Z,92.70
2023-03-05T13:37:32.866Z,92.60
2023-03-05T13:52:39.317Z,93.10
2023-03-05T14:07:47.895Z,92.10
2023-03-05T14:22:54.508Z,92.80
2023-03-05T14:38:00.919Z,91.50
2023-03-05T14:53:09.438Z,90.80
2023-03-05T15:08:17.701Z,90.10
2023-03-05T15:23:22.642Z,90.10
2023-03-05T15:38:27.366Z,90.30
2023-03-05T15:53:31.923Z,89.80
2023-03-05T16:08:37.606Z,90.30
2023-03-05T16:23:42.072Z,90.80
2023-03-05T16:38:46.592Z,90.80
2023-03-05T16:53:51.216Z,88.90
2023-03-05T17:08:56.531Z,89.70
2023-03-05T17:24:01.101Z,88.90
2023-03-05T17:39:05.980Z,91.10
2023-03-05T17:54:10.601Z,92.40
2023-03-05T18:09:15.091Z,91.00
2023-03-05T18:24:19.797Z,91.00
2023-03-05T18:39:24.428Z,90.80
2023-03-05T18:54:29.202Z,90.90
2023-03-05T19:09:54.835Z,91.20
2023-03-05T19:25:01.509Z,90.90
2023-03-05T19:40:07.208Z,91.50
2023-03-05T19:55:12.818Z,91.60
2023-03-05T20:10:17.410Z,91.50
2023-03-05T20:25:24.793Z,91.70
2023-03-05T20:40:29.438Z,91.30
2023-03-05T20:55:33.984Z,91.20
2023-03-05T21:10:39.329Z,92.10
2023-03-05T21:25:43.886Z,92.30
2023-03-05T21:40:50.030Z,92.80
2023-03-05T21:56:31.978Z,93.40
2023-03-05T22:11:36.738Z,92.50
2023-03-05T22:26:42.734Z,92.90
2023-03-05T22:41:47.841Z,93.60
2023-03-05T22:56:52.539Z,93.20
2023-03-05T23:11:57.185Z,94.10
2023-03-05T23:27:02.009Z,94.30
2023-03-05T23:42:07.053Z,94.80
2023-03-05T23:57:11.737Z,95.10
